sensor_id;sensor_type;location;lat;lon;timestamp;temperature;humidity
70456;DHT22;57916;51.996;5.180;2023-06-24T00:00:23;24.00;60.70
70456;DHT22;57916;51.996;5.180;2023-06-24T00:02:50;23.90;60.10
70456;DHT22;57916;51.996;5.180;2023-06-24T00:05:18;23.90;59.90
70456;DHT22;57916;51.996;5.180;2023-06-24T00:07:44;23.90;59.90
70456;DHT22;57916;51.996;5.180;2023-06-24T00:10:13;23.90;60.00
70456;DHT22;57916;51.996;5.180;2023-06-24T00:12:43;23.90;60.10
70456;DHT22;57916;51.996;5.180;2023-06-24T00:15:10;23.90;59.90
70456;DHT22;57916;51.996;5.180;2023-06-24T00:17:37;23.80;60.00
70456;DHT22;57916;51.996;5.180;2023-06-24T00:20:04;23.80;60.40
70456;DHT22;57916;51.996;5.180;2023-06-24T00:22:34;23.70;60.80
70456;DHT22;57916;51.996;5.180;2023-06-24T00:25:01;23.60;61.10
70456;DHT22;57916;51.996;5.180;2023-06-24T00:27:28;23.60;61.60
70456;DHT22;57916;51.996;5.180;2023-06-24T00:29:55;23.60;62.00
70456;DHT22;57916;51.996;5.180;2023-06-24T00:32:22;23.60;62.20
70456;DHT22;57916;51.996;5.180;2023-06-24T00:34:49;23.60;61.90
70456;DHT22;57916;51.996;5.180;2023-06-24T00:37:17;23.60;61.80
70456;DHT22;57916;51.996;5.180;2023-06-24T00:39:44;23.60;61.50
70456;DHT22;57916;51.996;5.180;2023-06-24T00:42:11;23.60;61.40
70456;DHT22;57916;51.996;5.180;2023-06-24T00:44:38;23.60;61.00
70456;DHT22;57916;51.996;5.180;2023-06-24T00:47:06;23.70;60.80
70456;DHT22;57916;51.996;5.180;2023-06-24T00:49:34;23.70;60.70
70456;DHT22;57916;51.996;5.180;2023-06-24T00:52:02;23.70;60.40
70456;DHT22;57916;51.996;5.180;2023-06-24T00:54:31;23.70;60.00
70456;DHT22;57916;51.996;5.180;2023-06-24T00:56:59;23.70;59.80
70456;DHT22;57916;51.996;5.180;2023-06-24T00:59:27;23.70;59.50
70456;DHT22;57916;51.996;5.180;2023-06-24T01:01:59;23.70;59.80
70456;DHT22;57916;51.996;5.180;2023-06-24T01:04:31;23.70;60.00
70456;DHT22;57916;51.996;5.180;2023-06-24T01:07:00;23.70;60.30
70456;DHT22;57916;51.996;5.180;2023-06-24T01:09:28;23.70;60.50
70456;DHT22;57916;51.996;5.180;2023-06-24T01:11:55;23.70;59.70
70456;DHT22;57916;51.996;5.180;2023-06-24T01:14:23;23.70;59.50
70456;DHT22;57916;51.996;5.180;2023-06-24T01:17:02;23.70;59.30
70456;DHT22;57916;51.996;5.180;2023-06-24T01:31:41;23.40;59.80
70456;DHT22;57916;51.996;5.180;2023-06-24T01:34:27;23.30;59.50
70456;DHT22;57916;51.996;5.180;2023-06-24T01:37:09;23.20;58.80
70456;DHT22;57916;51.996;5.180;2023-06-24T01:39:50;23.20;59.50
70456;DHT22;57916;51.996;5.180;2023-06-24T01:42:18;23.20;60.20
70456;DHT22;57916;51.996;5.180;2023-06-24T01:44:48;23.20;59.90
70456;DHT22;57916;51.996;5.180;2023-06-24T01:47:23;23.20;59.80
70456;DHT22;57916;51.996;5.180;2023-06-24T01:49:57;23.20;59.90
70456;DHT22;57916;51.996;5.180;2023-06-24T01:52:28;23.10;59.10
70456;DHT22;57916;51.996;5.180;2023-06-24T01:54:58;23.10;59.00
70456;DHT22;57916;51.996;5.180;2023-06-24T01:57:27;23.00;59.80
70456;DHT22;57916;51.996;5.180;2023-06-24T01:59:57;23.00;60.30
70456;DHT22;57916;51.996;5.180;2023-06-24T02:02:25;23.00;60.60
70456;DHT22;57916;51.996;5.180;2023-06-24T02:04:54;23.00;60.50
70456;DHT22;57916;51.996;5.180;2023-06-24T02:07:23;22.90;60.30
70456;DHT22;57916;51.996;5.180;2023-06-24T02:09:51;22.90;60.70
70456;DHT22;57916;51.996;5.180;2023-06-24T02:12:19;22.80;61.30
70456;DHT22;57916;51.996;5.180;2023-06-24T02:14:47;22.80;61.50
70456;DHT22;57916;51.996;5.180;2023-06-24T02:17:15;22.80;61.80
70456;DHT22;57916;51.996;5.180;2023-06-24T02:19:43;22.80;61.50
70456;DHT22;57916;51.996;5.180;2023-06-24T02:22:12;22.70;61.50
70456;DHT22;57916;51.996;5.180;2023-06-24T02:24:40;22.60;62.00
70456;DHT22;57916;51.996;5.180;2023-06-24T02:27:08;22.60;61.50
70456;DHT22;57916;51.996;5.180;2023-06-24T02:29:36;22.50;61.00
70456;DHT22;57916;51.996;5.180;2023-06-24T02:32:04;22.50;61.00
70456;DHT22;57916;51.996;5.180;2023-06-24T02:34:31;22.50;61.10
70456;DHT22;57916;51.996;5.180;2023-06-24T02:36:59;22.40;61.20
70456;DHT22;57916;51.996;5.180;2023-06-24T02:39:26;22.40;61.30
70456;DHT22;57916;51.996;5.180;2023-06-24T02:41:54;22.40;59.80
70456;DHT22;57916;51.996;5.180;2023-06-24T02:44:21;22.30;59.70
70456;DHT22;57916;51.996;5.180;2023-06-24T02:46:53;22.30;60.00
70456;DHT22;57916;51.996;5.180;2023-06-24T02:49:20;22.20;60.00
70456;DHT22;57916;51.996;5.180;2023-06-24T02:51:48;22.10;61.00
70456;DHT22;57916;51.996;5.180;2023-06-24T02:54:15;22.00;61.30
70456;DHT22;57916;51.996;5.180;2023-06-24T02:57:01;22.00;61.40
70456;DHT22;57916;51.996;5.180;2023-06-24T02:59:46;22.00;61.60
70456;DHT22;57916;51.996;5.180;2023-06-24T03:02:14;22.00;61.50
70456;DHT22;57916;51.996;5.180;2023-06-24T03:04:44;22.00;61.60
70456;DHT22;57916;51.996;5.180;2023-06-24T03:07:11;22.10;61.90
70456;DHT22;57916;51.996;5.180;2023-06-24T03:09:42;22.10;61.90
70456;DHT22;57916;51.996;5.180;2023-06-24T03:12:09;22.10;61.60
70456;DHT22;57916;51.996;5.180;2023-06-24T03:14:40;22.10;61.50
70456;DHT22;57916;51.996;5.180;2023-06-24T03:17:07;22.10;61.30
70456;DHT22;57916;51.996;5.180;2023-06-24T03:19:35;22.00;61.30
70456;DHT22;57916;51.996;5.180;2023-06-24T03:22:03;22.00;61.00
70456;DHT22;57916;51.996;5.180;2023-06-24T03:24:32;22.00;60.60
70456;DHT22;57916;51.996;5.180;2023-06-24T03:26:59;21.90;60.60
70456;DHT22;57916;51.996;5.180;2023-06-24T03:29:34;21.90;61.50
70456;DHT22;57916;51.996;5.180;2023-06-24T03:32:11;21.90;61.80
70456;DHT22;57916;51.996;5.180;2023-06-24T03:34:38;21.80;61.90
70456;DHT22;57916;51.996;5.180;2023-06-24T03:37:05;21.90;61.90
70456;DHT22;57916;51.996;5.180;2023-06-24T03:39:35;21.80;61.70
70456;DHT22;57916;51.996;5.180;2023-06-24T03:42:04;21.80;61.70
70456;DHT22;57916;51.996;5.180;2023-06-24T03:44:31;21.80;61.00
70456;DHT22;57916;51.996;5.180;2023-06-24T03:46:58;21.80;60.90
70456;DHT22;57916;51.996;5.180;2023-06-24T03:49:25;21.70;61.20
70456;DHT22;57916;51.996;5.180;2023-06-24T03:51:52;21.70;61.30
70456;DHT22;57916;51.996;5.180;2023-06-24T03:54:19;21.70;61.60
70456;DHT22;57916;51.996;5.180;2023-06-24T03:56:47;21.70;61.10
70456;DHT22;57916;51.996;5.180;2023-06-24T03:59:14;21.70;59.70
70456;DHT22;57916;51.996;5.180;2023-06-24T04:01:41;21.70;59.40
70456;DHT22;57916;51.996;5.180;2023-06-24T04:04:08;21.60;60.80
70456;DHT22;57916;51.996;5.180;2023-06-24T04:06:36;21.60;61.30
70456;DHT22;57916;51.996;5.180;2023-06-24T04:09:03;21.60;61.60
70456;DHT22;57916;51.996;5.180;2023-06-24T04:11:30;21.60;62.00
70456;DHT22;57916;51.996;5.180;2023-06-24T04:14:00;21.60;62.20
70456;DHT22;57916;51.996;5.180;2023-06-24T04:16:27;21.60;61.60
70456;DHT22;57916;51.996;5.180;2023-06-24T04:18:54;21.60;60.90
70456;DHT22;57916;51.996;5.180;2023-06-24T04:21:20;21.60;61.50
70456;DHT22;57916;51.996;5.180;2023-06-24T04:23:50;21.60;61.50
70456;DHT22;57916;51.996;5.180;2023-06-24T04:26:17;21.60;60.50
70456;DHT22;57916;51.996;5.180;2023-06-24T04:28:44;21.70;60.40
70456;DHT22;57916;51.996;5.180;2023-06-24T04:31:11;21.70;61.90
70456;DHT22;57916;51.996;5.180;2023-06-24T04:33:38;21.70;62.00
70456;DHT22;57916;51.996;5.180;2023-06-24T04:36:05;21.70;62.00
70456;DHT22;57916;51.996;5.180;2023-06-24T04:38:33;21.80;61.40
70456;DHT22;57916;51.996;5.180;2023-06-24T04:41:01;21.80;60.70
70456;DHT22;57916;51.996;5.180;2023-06-24T04:43:28;21.80;60.40
70456;DHT22;57916;51.996;5.180;2023-06-24T04:45:55;21.80;60.40
70456;DHT22;57916;51.996;5.180;2023-06-24T04:48:24;21.90;60.70
70456;DHT22;57916;51.996;5.180;2023-06-24T04:50:51;21.90;60.50
70456;DHT22;57916;51.996;5.180;2023-06-24T04:53:21;21.90;60.50
70456;DHT22;57916;51.996;5.180;2023-06-24T04:55:48;22.00;60.60
70456;DHT22;57916;51.996;5.180;2023-06-24T04:58:15;22.10;60.50
70456;DHT22;57916;51.996;5.180;2023-06-24T05:00:42;22.10;60.30
70456;DHT22;57916;51.996;5.180;2023-06-24T05:03:09;22.10;60.50
70456;DHT22;57916;51.996;5.180;2023-06-24T05:05:36;22.10;60.80
70456;DHT22;57916;51.996;5.180;2023-06-24T05:08:04;22.10;61.30
70456;DHT22;57916;51.996;5.180;2023-06-24T05:10:31;22.10;62.00
70456;DHT22;57916;51.996;5.180;2023-06-24T05:12:58;22.10;62.50
70456;DHT22;57916;51.996;5.180;2023-06-24T05:15:25;22.10;63.10
70456;DHT22;57916;51.996;5.180;2023-06-24T05:17:52;22.20;63.50
70456;DHT22;57916;51.996;5.180;2023-06-24T05:20:19;22.20;63.50
70456;DHT22;57916;51.996;5.180;2023-06-24T05:22:46;22.20;63.70
70456;DHT22;57916;51.996;5.180;2023-06-24T05:25:13;22.20;63.80
70456;DHT22;57916;51.996;5.180;2023-06-24T05:27:41;22.20;63.80
70456;DHT22;57916;51.996;5.180;2023-06-24T05:30:08;22.20;63.80
70456;DHT22;57916;51.996;5.180;2023-06-24T05:32:35;22.20;64.40
70456;DHT22;57916;51.996;5.180;2023-06-24T05:35:02;22.30;63.70
70456;DHT22;57916;51.996;5.180;2023-06-24T05:37:29;22.30;62.80
70456;DHT22;57916;51.996;5.180;2023-06-24T05:39:56;22.30;62.80
70456;DHT22;57916;51.996;5.180;2023-06-24T05:42:27;22.30;62.60
70456;DHT22;57916;51.996;5.180;2023-06-24T05:44:54;22.30;62.70
70456;DHT22;57916;51.996;5.180;2023-06-24T05:47:21;22.30;63.00
70456;DHT22;57916;51.996;5.180;2023-06-24T05:49:47;22.30;63.30
70456;DHT22;57916;51.996;5.180;2023-06-24T05:52:14;22.40;63.30
70456;DHT22;57916;51.996;5.180;2023-06-24T05:54:41;22.40;62.70
70456;DHT22;57916;51.996;5.180;2023-06-24T05:57:08;22.50;64.10
70456;DHT22;57916;51.996;5.180;2023-06-24T05:59:36;22.60;63.00
70456;DHT22;57916;51.996;5.180;2023-06-24T06:02:04;22.70;62.50
70456;DHT22;57916;51.996;5.180;2023-06-24T06:04:32;22.80;62.00
70456;DHT22;57916;51.996;5.180;2023-06-24T06:06:59;22.90;61.70
70456;DHT22;57916;51.996;5.180;2023-06-24T06:09:26;22.90;61.30
70456;DHT22;57916;51.996;5.180;2023-06-24T06:11:53;23.00;61.10
70456;DHT22;57916;51.996;5.180;2023-06-24T06:14:20;23.10;62.10
70456;DHT22;57916;51.996;5.180;2023-06-24T06:16:47;23.20;60.90
70456;DHT22;57916;51.996;5.180;2023-06-24T06:19:14;23.20;60.80
70456;DHT22;57916;51.996;5.180;2023-06-24T06:21:41;23.30;60.70
70456;DHT22;57916;51.996;5.180;2023-06-24T06:24:08;23.40;60.50
70456;DHT22;57916;51.996;5.180;2023-06-24T06:26:43;23.40;60.50
70456;DHT22;57916;51.996;5.180;2023-06-24T06:29:11;23.50;60.70
70456;DHT22;57916;51.996;5.180;2023-06-24T06:31:38;23.60;60.30
70456;DHT22;57916;51.996;5.180;2023-06-24T06:34:06;23.60;60.00
70456;DHT22;57916;51.996;5.180;2023-06-24T06:36:33;23.60;59.50
70456;DHT22;57916;51.996;5.180;2023-06-24T06:39:00;23.60;60.20
70456;DHT22;57916;51.996;5.180;2023-06-24T06:41:27;23.50;60.20
70456;DHT22;57916;51.996;5.180;2023-06-24T06:43:54;23.60;60.20
70456;DHT22;57916;51.996;5.180;2023-06-24T06:46:21;23.70;60.50
70456;DHT22;57916;51.996;5.180;2023-06-24T06:48:48;23.70;60.50
70456;DHT22;57916;51.996;5.180;2023-06-24T06:51:15;23.80;60.20
70456;DHT22;57916;51.996;5.180;2023-06-24T06:53:43;24.00;60.00
70456;DHT22;57916;51.996;5.180;2023-06-24T06:56:17;24.00;59.60
70456;DHT22;57916;51.996;5.180;2023-06-24T06:58:44;24.00;59.20
70456;DHT22;57916;51.996;5.180;2023-06-24T07:01:11;24.00;59.20
70456;DHT22;57916;51.996;5.180;2023-06-24T07:03:38;24.10;59.30
70456;DHT22;57916;51.996;5.180;2023-06-24T07:06:05;24.20;58.70
70456;DHT22;57916;51.996;5.180;2023-06-24T07:08:33;24.30;58.50
70456;DHT22;57916;51.996;5.180;2023-06-24T07:11:01;24.50;57.30
70456;DHT22;57916;51.996;5.180;2023-06-24T07:13:28;24.60;57.60
70456;DHT22;57916;51.996;5.180;2023-06-24T07:15:55;24.70;57.00
70456;DHT22;57916;51.996;5.180;2023-06-24T07:18:23;24.80;55.80
70456;DHT22;57916;51.996;5.180;2023-06-24T07:20:49;25.00;55.20
70456;DHT22;57916;51.996;5.180;2023-06-24T07:23:16;25.20;55.70
70456;DHT22;57916;51.996;5.180;2023-06-24T07:25:43;25.40;55.50
70456;DHT22;57916;51.996;5.180;2023-06-24T07:28:10;25.70;54.80
70456;DHT22;57916;51.996;5.180;2023-06-24T07:30:40;26.00;53.80
70456;DHT22;57916;51.996;5.180;2023-06-24T07:33:07;26.30;53.00
70456;DHT22;57916;51.996;5.180;2023-06-24T07:35:34;26.60;52.90
70456;DHT22;57916;51.996;5.180;2023-06-24T07:38:02;26.80;52.90
70456;DHT22;57916;51.996;5.180;2023-06-24T07:40:29;27.20;51.50
70456;DHT22;57916;51.996;5.180;2023-06-24T07:42:56;27.50;49.70
70456;DHT22;57916;51.996;5.180;2023-06-24T07:45:22;27.60;49.10
70456;DHT22;57916;51.996;5.180;2023-06-24T07:47:50;27.50;48.80
70456;DHT22;57916;51.996;5.180;2023-06-24T07:50:17;27.60;48.90
70456;DHT22;57916;51.996;5.180;2023-06-24T07:52:44;27.70;48.90
70456;DHT22;57916;51.996;5.180;2023-06-24T07:55:11;27.80;50.30
70456;DHT22;57916;51.996;5.180;2023-06-24T07:57:38;28.00;48.60
70456;DHT22;57916;51.996;5.180;2023-06-24T08:00:08;28.10;48.60
70456;DHT22;57916;51.996;5.180;2023-06-24T08:02:40;28.10;47.10
70456;DHT22;57916;51.996;5.180;2023-06-24T08:05:08;28.10;47.20
70456;DHT22;57916;51.996;5.180;2023-06-24T08:07:37;28.30;47.10
70456;DHT22;57916;51.996;5.180;2023-06-24T08:10:04;28.40;46.80
70456;DHT22;57916;51.996;5.180;2023-06-24T08:12:31;28.50;46.20
70456;DHT22;57916;51.996;5.180;2023-06-24T08:14:58;28.60;46.20
70456;DHT22;57916;51.996;5.180;2023-06-24T08:17:25;28.60;45.80
70456;DHT22;57916;51.996;5.180;2023-06-24T08:19:52;28.60;46.90
70456;DHT22;57916;51.996;5.180;2023-06-24T08:22:19;28.70;45.30
70456;DHT22;57916;51.996;5.180;2023-06-24T08:24:46;28.80;43.80
70456;DHT22;57916;51.996;5.180;2023-06-24T08:27:13;28.80;44.40
70456;DHT22;57916;51.996;5.180;2023-06-24T08:29:40;28.90;44.70
70456;DHT22;57916;51.996;5.180;2023-06-24T08:32:07;29.20;44.00
70456;DHT22;57916;51.996;5.180;2023-06-24T08:34:34;29.50;44.40
70456;DHT22;57916;51.996;5.180;2023-06-24T08:37:01;29.70;42.70
70456;DHT22;57916;51.996;5.180;2023-06-24T08:39:28;29.80;42.80
70456;DHT22;57916;51.996;5.180;2023-06-24T08:41:55;30.10;42.00
70456;DHT22;57916;51.996;5.180;2023-06-24T08:44:22;30.20;41.20
70456;DHT22;57916;51.996;5.180;2023-06-24T08:46:49;30.30;41.10
70456;DHT22;57916;51.996;5.180;2023-06-24T08:51:59;30.50;40.80
70456;DHT22;57916;51.996;5.180;2023-06-24T08:54:26;30.60;40.40
70456;DHT22;57916;51.996;5.180;2023-06-24T08:56:54;30.70;40.30
70456;DHT22;57916;51.996;5.180;2023-06-24T08:59:21;30.70;40.20
70456;DHT22;57916;51.996;5.180;2023-06-24T09:01:49;30.80;39.30
70456;DHT22;57916;51.996;5.180;2023-06-24T09:04:16;30.90;40.30
70456;DHT22;57916;51.996;5.180;2023-06-24T09:06:43;30.90;40.60
70456;DHT22;57916;51.996;5.180;2023-06-24T09:09:21;31.10;41.00
70456;DHT22;57916;51.996;5.180;2023-06-24T09:14:20;31.50;39.30
70456;DHT22;57916;51.996;5.180;2023-06-24T09:16:58;31.70;38.20
70456;DHT22;57916;51.996;5.180;2023-06-24T09:19:28;31.90;37.50
70456;DHT22;57916;51.996;5.180;2023-06-24T09:22:07;32.00;37.60
70456;DHT22;57916;51.996;5.180;2023-06-24T09:24:36;32.10;37.40
70456;DHT22;57916;51.996;5.180;2023-06-24T09:27:05;32.30;36.70
70456;DHT22;57916;51.996;5.180;2023-06-24T09:29:34;32.40;36.80
70456;DHT22;57916;51.996;5.180;2023-06-24T09:32:04;32.40;37.60
70456;DHT22;57916;51.996;5.180;2023-06-24T09:34:32;32.60;36.90
70456;DHT22;57916;51.996;5.180;2023-06-24T09:37:00;32.60;35.90
70456;DHT22;57916;51.996;5.180;2023-06-24T09:39:28;32.60;36.10
70456;DHT22;57916;51.996;5.180;2023-06-24T09:42:01;32.60;38.10
70456;DHT22;57916;51.996;5.180;2023-06-24T09:44:29;32.90;38.30
70456;DHT22;57916;51.996;5.180;2023-06-24T09:46:56;33.20;36.90
70456;DHT22;57916;51.996;5.180;2023-06-24T09:49:23;33.10;36.30
70456;DHT22;57916;51.996;5.180;2023-06-24T09:51:56;33.10;36.30
70456;DHT22;57916;51.996;5.180;2023-06-24T09:54:26;33.10;37.20
70456;DHT22;57916;51.996;5.180;2023-06-24T09:57:02;33.20;36.60
70456;DHT22;57916;51.996;5.180;2023-06-24T09:59:30;33.30;37.20
70456;DHT22;57916;51.996;5.180;2023-06-24T10:01:57;33.50;37.10
70456;DHT22;57916;51.996;5.180;2023-06-24T10:04:26;33.70;37.30
70456;DHT22;57916;51.996;5.180;2023-06-24T10:06:54;33.90;35.90
70456;DHT22;57916;51.996;5.180;2023-06-24T10:09:21;34.10;36.40
70456;DHT22;57916;51.996;5.180;2023-06-24T10:11:48;34.30;35.90
70456;DHT22;57916;51.996;5.180;2023-06-24T10:14:16;34.60;35.80
70456;DHT22;57916;51.996;5.180;2023-06-24T10:16:44;34.80;35.00
70456;DHT22;57916;51.996;5.180;2023-06-24T10:19:19;34.90;35.70
70456;DHT22;57916;51.996;5.180;2023-06-24T10:21:54;35.00;34.40
70456;DHT22;57916;51.996;5.180;2023-06-24T10:24:34;35.10;33.60
70456;DHT22;57916;51.996;5.180;2023-06-24T10:27:03;35.10;33.50
70456;DHT22;57916;51.996;5.180;2023-06-24T10:29:31;35.10;33.60
70456;DHT22;57916;51.996;5.180;2023-06-24T10:32:06;35.20;33.80
70456;DHT22;57916;51.996;5.180;2023-06-24T10:37:25;35.20;33.30
70456;DHT22;57916;51.996;5.180;2023-06-24T10:39:55;35.20;33.60
70456;DHT22;57916;51.996;5.180;2023-06-24T10:45:19;35.20;32.00
70456;DHT22;57916;51.996;5.180;2023-06-24T10:47:50;35.00;32.30
70456;DHT22;57916;51.996;5.180;2023-06-24T10:50:23;34.90;32.40
70456;DHT22;57916;51.996;5.180;2023-06-24T10:52:53;34.90;32.50
70456;DHT22;57916;51.996;5.180;2023-06-24T10:55:25;34.80;33.30
70456;DHT22;57916;51.996;5.180;2023-06-24T10:58:06;34.90;33.40
70456;DHT22;57916;51.996;5.180;2023-06-24T11:00:37;34.90;33.70
70456;DHT22;57916;51.996;5.180;2023-06-24T11:03:14;34.90;33.60
70456;DHT22;57916;51.996;5.180;2023-06-24T11:05:44;35.00;34.70
70456;DHT22;57916;51.996;5.180;2023-06-24T11:08:11;35.10;33.80
70456;DHT22;57916;51.996;5.180;2023-06-24T11:10:46;35.30;33.70
70456;DHT22;57916;51.996;5.180;2023-06-24T11:13:14;35.40;31.60
70456;DHT22;57916;51.996;5.180;2023-06-24T11:15:41;35.60;31.30
70456;DHT22;57916;51.996;5.180;2023-06-24T11:18:10;35.60;32.20
70456;DHT22;57916;51.996;5.180;2023-06-24T11:20:38;35.80;32.10
70456;DHT22;57916;51.996;5.180;2023-06-24T11:23:10;35.90;31.80
70456;DHT22;57916;51.996;5.180;2023-06-24T11:25:42;35.80;30.30
70456;DHT22;57916;51.996;5.180;2023-06-24T11:28:18;35.80;31.80
70456;DHT22;57916;51.996;5.180;2023-06-24T11:30:49;35.70;30.90
70456;DHT22;57916;51.996;5.180;2023-06-24T11:33:36;35.60;31.50
70456;DHT22;57916;51.996;5.180;2023-06-24T11:36:09;35.50;32.30
70456;DHT22;57916;51.996;5.180;2023-06-24T11:38:36;35.30;31.80
70456;DHT22;57916;51.996;5.180;2023-06-24T11:41:03;35.30;33.20
70456;DHT22;57916;51.996;5.180;2023-06-24T11:43:30;35.30;34.00
70456;DHT22;57916;51.996;5.180;2023-06-24T11:45:57;35.60;33.10
70456;DHT22;57916;51.996;5.180;2023-06-24T11:48:28;35.80;34.60
70456;DHT22;57916;51.996;5.180;2023-06-24T11:50:55;35.90;31.20
70456;DHT22;57916;51.996;5.180;2023-06-24T11:53:40;35.70;31.80
70456;DHT22;57916;51.996;5.180;2023-06-24T11:56:08;35.50;31.90
70456;DHT22;57916;51.996;5.180;2023-06-24T11:58:35;35.30;32.20
70456;DHT22;57916;51.996;5.180;2023-06-24T12:01:02;34.90;33.60
70456;DHT22;57916;51.996;5.180;2023-06-24T12:03:30;34.60;33.70
70456;DHT22;57916;51.996;5.180;2023-06-24T12:05:59;34.50;35.80
70456;DHT22;57916;51.996;5.180;2023-06-24T12:08:26;34.60;35.70
70456;DHT22;57916;51.996;5.180;2023-06-24T12:11:01;34.60;34.10
70456;DHT22;57916;51.996;5.180;2023-06-24T12:13:29;34.60;34.20
70456;DHT22;57916;51.996;5.180;2023-06-24T12:15:55;34.60;34.90
70456;DHT22;57916;51.996;5.180;2023-06-24T12:18:23;34.60;35.10
70456;DHT22;57916;51.996;5.180;2023-06-24T12:20:49;34.50;35.70
70456;DHT22;57916;51.996;5.180;2023-06-24T12:23:16;34.40;35.20
70456;DHT22;57916;51.996;5.180;2023-06-24T12:25:43;34.30;33.80
70456;DHT22;57916;51.996;5.180;2023-06-24T12:28:10;34.10;34.40
70456;DHT22;57916;51.996;5.180;2023-06-24T12:30:37;34.00;35.50
70456;DHT22;57916;51.996;5.180;2023-06-24T12:33:04;34.00;36.20
70456;DHT22;57916;51.996;5.180;2023-06-24T12:35:35;33.90;34.70
70456;DHT22;57916;51.996;5.180;2023-06-24T12:38:02;33.90;35.90
70456;DHT22;57916;51.996;5.180;2023-06-24T12:40:29;33.80;34.70
70456;DHT22;57916;51.996;5.180;2023-06-24T12:42:56;33.70;35.80
70456;DHT22;57916;51.996;5.180;2023-06-24T12:45:24;33.60;35.20
70456;DHT22;57916;51.996;5.180;2023-06-24T12:47:51;33.50;35.10
70456;DHT22;57916;51.996;5.180;2023-06-24T12:50:18;33.40;36.70
70456;DHT22;57916;51.996;5.180;2023-06-24T12:52:45;33.30;35.70
70456;DHT22;57916;51.996;5.180;2023-06-24T12:55:12;33.20;35.40
70456;DHT22;57916;51.996;5.180;2023-06-24T12:57:42;33.10;36.90
70456;DHT22;57916;51.996;5.180;2023-06-24T13:00:10;33.10;36.90
70456;DHT22;57916;51.996;5.180;2023-06-24T13:02:37;33.00;36.60
70456;DHT22;57916;51.996;5.180;2023-06-24T13:05:06;33.10;38.00
70456;DHT22;57916;51.996;5.180;2023-06-24T13:07:33;33.20;37.10
70456;DHT22;57916;51.996;5.180;2023-06-24T13:10:00;33.30;37.20
70456;DHT22;57916;51.996;5.180;2023-06-24T13:12:28;33.30;38.50
70456;DHT22;57916;51.996;5.180;2023-06-24T13:14:55;33.40;35.60
70456;DHT22;57916;51.996;5.180;2023-06-24T13:17:22;33.40;36.20
70456;DHT22;57916;51.996;5.180;2023-06-24T13:19:50;33.30;36.20
70456;DHT22;57916;51.996;5.180;2023-06-24T13:22:17;33.00;36.50
70456;DHT22;57916;51.996;5.180;2023-06-24T13:24:44;32.80;38.20
70456;DHT22;57916;51.996;5.180;2023-06-24T13:27:11;32.80;36.40
70456;DHT22;57916;51.996;5.180;2023-06-24T13:29:38;32.70;38.60
70456;DHT22;57916;51.996;5.180;2023-06-24T13:32:06;32.70;37.00
70456;DHT22;57916;51.996;5.180;2023-06-24T13:34:33;32.90;36.80
70456;DHT22;57916;51.996;5.180;2023-06-24T13:37:01;33.00;36.10
70456;DHT22;57916;51.996;5.180;2023-06-24T13:39:28;33.10;35.50
70456;DHT22;57916;51.996;5.180;2023-06-24T13:41:56;33.10;36.10
70456;DHT22;57916;51.996;5.180;2023-06-24T13:44:23;33.00;35.90
70456;DHT22;57916;51.996;5.180;2023-06-24T13:46:51;33.00;35.90
70456;DHT22;57916;51.996;5.180;2023-06-24T13:49:20;32.90;36.90
70456;DHT22;57916;51.996;5.180;2023-06-24T13:51:47;32.90;36.10
70456;DHT22;57916;51.996;5.180;2023-06-24T13:54:14;32.70;36.70
70456;DHT22;57916;51.996;5.180;2023-06-24T13:56:41;32.60;36.10
70456;DHT22;57916;51.996;5.180;2023-06-24T13:59:08;32.50;35.40
70456;DHT22;57916;51.996;5.180;2023-06-24T14:01:37;32.40;35.40
70456;DHT22;57916;51.996;5.180;2023-06-24T14:04:04;32.40;36.00
70456;DHT22;57916;51.996;5.180;2023-06-24T14:06:32;32.30;36.20
70456;DHT22;57916;51.996;5.180;2023-06-24T14:08:59;32.30;37.70
70456;DHT22;57916;51.996;5.180;2023-06-24T14:11:26;32.30;36.90
70456;DHT22;57916;51.996;5.180;2023-06-24T14:13:53;32.30;36.20
70456;DHT22;57916;51.996;5.180;2023-06-24T14:16:22;32.30;35.40
70456;DHT22;57916;51.996;5.180;2023-06-24T14:18:49;32.10;34.30
70456;DHT22;57916;51.996;5.180;2023-06-24T14:21:16;32.00;34.80
70456;DHT22;57916;51.996;5.180;2023-06-24T14:23:43;32.00;36.60
70456;DHT22;57916;51.996;5.180;2023-06-24T14:26:11;32.10;36.30
70456;DHT22;57916;51.996;5.180;2023-06-24T14:28:38;32.20;36.60
70456;DHT22;57916;51.996;5.180;2023-06-24T14:31:05;32.20;37.20
70456;DHT22;57916;51.996;5.180;2023-06-24T14:33:32;32.20;36.90
70456;DHT22;57916;51.996;5.180;2023-06-24T14:35:59;32.20;36.90
70456;DHT22;57916;51.996;5.180;2023-06-24T14:38:26;32.30;36.20
70456;DHT22;57916;51.996;5.180;2023-06-24T14:40:55;32.30;35.80
70456;DHT22;57916;51.996;5.180;2023-06-24T14:43:24;32.20;35.80
70456;DHT22;57916;51.996;5.180;2023-06-24T14:45:50;32.30;35.40
70456;DHT22;57916;51.996;5.180;2023-06-24T14:48:18;32.30;35.40
70456;DHT22;57916;51.996;5.180;2023-06-24T14:50:45;32.30;36.30
70456;DHT22;57916;51.996;5.180;2023-06-24T14:53:12;32.30;35.10
70456;DHT22;57916;51.996;5.180;2023-06-24T14:55:39;32.20;35.70
70456;DHT22;57916;51.996;5.180;2023-06-24T14:58:06;32.30;36.10
70456;DHT22;57916;51.996;5.180;2023-06-24T15:00:33;32.30;38.00
70456;DHT22;57916;51.996;5.180;2023-06-24T15:03:00;32.30;35.70
70456;DHT22;57916;51.996;5.180;2023-06-24T15:05:27;32.40;34.90
70456;DHT22;57916;51.996;5.180;2023-06-24T15:07:54;32.30;34.00
70456;DHT22;57916;51.996;5.180;2023-06-24T15:10:21;32.30;34.70
70456;DHT22;57916;51.996;5.180;2023-06-24T15:12:48;32.30;34.30
70456;DHT22;57916;51.996;5.180;2023-06-24T15:15:15;32.30;35.40
70456;DHT22;57916;51.996;5.180;2023-06-24T15:17:42;32.20;34.80
70456;DHT22;57916;51.996;5.180;2023-06-24T15:20:12;32.20;34.90
70456;DHT22;57916;51.996;5.180;2023-06-24T15:22:41;32.10;35.60
70456;DHT22;57916;51.996;5.180;2023-06-24T15:25:08;32.20;35.60
70456;DHT22;57916;51.996;5.180;2023-06-24T15:27:35;32.20;35.60
70456;DHT22;57916;51.996;5.180;2023-06-24T15:30:02;32.20;34.80
70456;DHT22;57916;51.996;5.180;2023-06-24T15:32:30;32.20;34.50
70456;DHT22;57916;51.996;5.180;2023-06-24T15:34:57;32.20;34.20
70456;DHT22;57916;51.996;5.180;2023-06-24T15:37:24;32.10;34.70
70456;DHT22;57916;51.996;5.180;2023-06-24T15:39:51;32.10;34.80
70456;DHT22;57916;51.996;5.180;2023-06-24T15:42:18;32.10;35.80
70456;DHT22;57916;51.996;5.180;2023-06-24T15:44:45;32.00;34.70
70456;DHT22;57916;51.996;5.180;2023-06-24T15:47:12;32.00;34.00
70456;DHT22;57916;51.996;5.180;2023-06-24T15:49:39;32.10;34.30
70456;DHT22;57916;51.996;5.180;2023-06-24T15:52:06;32.10;34.40
70456;DHT22;57916;51.996;5.180;2023-06-24T15:54:33;32.10;34.40
70456;DHT22;57916;51.996;5.180;2023-06-24T15:57:00;32.00;34.60
70456;DHT22;57916;51.996;5.180;2023-06-24T15:59:27;32.00;34.30